Disclaimer

Please do not use the information listed here in-flight or in-navigation, as they are not provided to us by the airports but are provided by volunteers, so they might be outdated.

Search


Regions


Airport information page

No radio frequency information is available.

Airport informations:
Latitude: 53° 36' 07.08" N
Longitude: 024° 03' 13.53" E
Elevation: 443 feet - 135 meters
Operating hours: Remarks
Operating agency: Civil government, landing fees and diplomatic clearance may be required
Timezone: UTC+2(+3DT) - Last Sunday in March to last Sunday in October
Fuel: N/A

Runway information:
09/27 - 2172 x 92 feet< - >662 x 28 meters
17/35 - 8399 x 138 feet< - >2560 x 42 meters

Recent METARs:
UMMG 170900Z 20006G09MPS 9000 BKN016 BKN066 02/00 Q0996 R17/290060 NOSIG
UMMG 170900Z 20006G09MPS 9000 BKN016 BKN066 02/00 Q0996 R17/290060 NOSIG
UMMG 171000Z 20006G09MPS 9000 BKN016 OVC020 02/M00 Q0996 R17/290060 NOSIG

Airport on the map: